Disclaimer

Please do not use the information listed here in-flight or in-navigation, as they are not provided to us by the airports but are provided by volunteers, so they might be outdated.

Search


Regions


Airport information page

Radio informations:
Tower (TWR) - 118.1 MHz
KRUG - 120.3 MHz
TAXIING - 121.7 MHz
Automatic Terminal Information Service (ATIS) - 127.3 MHz

Airport informations:
Latitude: 59° 48' 01.05" N
Longitude: 030° 15' 45.01" E
Elevation: 78 feet - 24 meters
Operating hours: 24 hour operations
Operating agency: Civil government, landing fees and diplomatic clearance may be required
Timezone: UTC+3(+4DT) - First Sunday in April to the last Saturday in October
Fuel: N/A

Runway information:
10R/28L - 12402 x 197 feet< - >3780 x 60 meters
10L/28R - 11146 x 197 feet< - >3397 x 60 meters

Recent METARs:
ULLI 201530Z 31008MPS 9999 FEW010 OVC013 M01/M04 Q1027 R88/190055 NOSIG
ULLI 201600Z 31007MPS 9999 BKN010 OVC013 M01/M04 Q1027 R88/190055 NOSIG
ULLI 201630Z 31007MPS 9999 OVC010 M01/M04 Q1027 R88/190055 NOSIG

Airport on the map: